Time;durP1;ratioP1;P1;durP2;ratioP2;P2;SDS_P1;SDS_P2;PMS_P1;PMS_P2;Temp;Humidity;BMP_temperature;BMP_pressure;BME280_temperature;BME280_humidity;BME280_pressure;Samples;Min_cycle;Max_cycle;Signal;HPM_P1;HPM_P2
2023/03/26 00:01:45;;;;;;;0.80;0.80;;;7.90;99.90;;;;;;6214630;23;20092;-72
2023/03/26 00:04:11;;;;;;;0.93;0.90;;;7.90;99.90;;;;;;6189749;23;20012;-73
2023/03/26 00:06:40;;;;;;;1.00;0.90;;;7.80;99.90;;;;;;6215091;23;20024;-73
2023/03/26 00:09:08;;;;;;;0.80;0.80;;;7.80;99.90;;;;;;6215065;23;20024;-72
2023/03/26 00:11:34;;;;;;;0.73;0.73;;;7.80;99.90;;;;;;6216595;23;20369;-72
2023/03/26 00:14:01;;;;;;;0.80;0.80;;;7.60;99.90;;;;;;6189630;23;20016;-72
2023/03/26 00:16:30;;;;;;;1.00;0.90;;;7.60;99.90;;;;;;6216235;23;20016;-73
2023/03/26 00:18:56;;;;;;;0.80;0.80;;;7.70;99.90;;;;;;6216254;23;20019;-73
2023/03/26 00:21:27;;;;;;;0.88;0.80;;;7.60;99.90;;;;;;6216068;23;20017;-73
2023/03/26 00:24:14;;;;;;;0.95;0.88;;;7.60;99.90;;;;;;6214648;23;20047;-74
2023/03/26 00:26:40;;;;;;;1.00;0.90;;;7.40;99.90;;;;;;6214904;23;20012;-73
2023/03/26 00:29:08;;;;;;;1.13;1.00;;;7.50;99.90;;;;;;6214434;23;20009;-73
2023/03/26 00:31:34;;;;;;;0.90;0.90;;;7.40;99.90;;;;;;6214513;23;20108;-73
2023/03/26 00:34:02;;;;;;;1.27;1.00;;;7.40;99.90;;;;;;6189398;23;20018;-73
2023/03/26 00:36:28;;;;;;;1.30;0.98;;;7.50;99.90;;;;;;6215774;23;20086;-73
2023/03/26 00:38:54;;;;;;;0.80;0.80;;;7.40;99.90;;;;;;6214540;23;20016;-73
2023/03/26 00:41:23;;;;;;;0.70;0.70;;;7.40;99.90;;;;;;6216168;23;20313;-73
2023/03/26 00:43:52;;;;;;;0.88;0.70;;;7.40;99.90;;;;;;6214425;23;20070;-73
2023/03/26 00:46:18;;;;;;;0.80;0.80;;;7.50;99.90;;;;;;6189320;23;20028;-73
2023/03/26 00:48:45;;;;;;;1.17;0.90;;;7.30;99.90;;;;;;6216179;23;20075;-73
2023/03/26 00:51:14;;;;;;;1.00;0.90;;;7.40;99.90;;;;;;6215891;23;20016;-73
2023/03/26 00:53:40;;;;;;;0.75;0.75;;;7.40;99.90;;;;;;6216194;23;20019;-73
2023/03/26 00:56:06;;;;;;;0.70;0.70;;;7.40;99.90;;;;;;6214351;23;20020;-73
2023/03/26 00:58:32;;;;;;;0.70;0.70;;;7.30;99.90;;;;;;6239696;23;20089;-73
2023/03/26 01:01:02;;;;;;;0.80;0.77;;;7.40;99.90;;;;;;6214174;23;20017;-73
2023/03/26 01:03:29;;;;;;;0.70;0.70;;;7.40;99.90;;;;;;6189314;23;20032;-73
2023/03/26 01:06:26;;;;;;;0.80;0.80;;;7.30;99.90;;;;;;6188922;23;20019;-73
2023/03/26 01:08:53;;;;;;;0.80;0.80;;;7.40;99.90;;;;;;6216292;23;20031;-73
2023/03/26 01:11:25;;;;;;;0.60;0.60;;;7.50;99.90;;;;;;6216129;23;20048;-73
2023/03/26 01:13:58;;;;;;;0.80;0.80;;;7.40;99.90;;;;;;6215708;23;20012;-73
2023/03/26 01:16:50;;;;;;;0.70;0.70;;;7.50;99.90;;;;;;6215191;23;20024;-73
2023/03/26 01:19:48;;;;;;;0.93;0.93;;;7.40;99.90;;;;;;6216062;23;20080;-73
2023/03/26 01:22:25;;;;;;;0.70;0.70;;;7.30;99.90;;;;;;6215925;23;20005;-73
2023/03/26 01:24:55;;;;;;;0.70;0.70;;;7.40;99.90;;;;;;6214160;23;20013;-73
2023/03/26 01:27:31;;;;;;;;;;;7.30;99.90;;;;;;6215015;23;20457;-73
2023/03/26 01:30:21;;;;;;;0.98;0.80;;;7.20;99.90;;;;;;6215556;23;19979;-73
2023/03/26 01:33:05;;;;;;;0.70;0.70;;;7.40;99.90;;;;;;6189480;23;20394;-74
2023/03/26 01:35:55;;;;;;;0.65;0.65;;;7.20;99.90;;;;;;6213910;23;20017;-74
2023/03/26 01:38:45;;;;;;;0.70;0.70;;;7.30;99.90;;;;;;6187845;23;20025;-73
2023/03/26 01:41:32;;;;;;;0.75;0.75;;;7.20;99.90;;;;;;6214083;23;20016;-73
2023/03/26 01:44:22;;;;;;;0.60;0.60;;;7.20;99.90;;;;;;6214198;23;20039;-73
2023/03/26 01:46:50;;;;;;;0.80;0.80;;;7.00;99.90;;;;;;6216112;23;20008;-72
2023/03/26 01:49:17;;;;;;;0.95;0.93;;;7.10;99.90;;;;;;6215584;23;20251;-71
2023/03/26 01:51:43;;;;;;;0.75;0.70;;;7.00;99.90;;;;;;6214037;23;20017;-71
2023/03/26 01:54:15;;;;;;;0.60;0.60;;;7.10;99.90;;;;;;6215520;23;20099;-71
2023/03/26 01:56:52;;;;;;;0.60;0.60;;;7.00;99.90;;;;;;6215904;23;20013;-72
2023/03/26 01:59:46;;;;;;;0.80;0.80;;;7.10;99.90;;;;;;6215785;23;20082;-71
2023/03/26 02:02:15;;;;;;;0.93;0.80;;;7.10;99.90;;;;;;6239130;23;20323;-71
2023/03/26 02:05:00;;;;;;;0.80;0.80;;;7.10;99.90;;;;;;6214305;23;20095;-71
2023/03/26 02:07:36;;;;;;;0.65;0.65;;;7.00;99.90;;;;;;6214969;23;20035;-71
2023/03/26 02:10:19;;;;;;;0.80;0.80;;;6.90;99.90;;;;;;6213911;23;20016;-72
2023/03/26 02:12:45;;;;;;;1.02;0.80;;;6.90;99.90;;;;;;6215818;23;20377;-71
2023/03/26 02:15:12;;;;;;;0.70;0.70;;;6.80;99.90;;;;;;6214246;23;20013;-71
2023/03/26 02:17:41;;;;;;;0.90;0.90;;;6.60;99.90;;;;;;6190643;23;20012;-71
2023/03/26 02:20:09;;;;;;;0.70;0.70;;;6.60;99.90;;;;;;6217542;23;20008;-71
2023/03/26 02:22:39;;;;;;;1.20;0.85;;;6.50;99.90;;;;;;6215618;23;20452;-71
2023/03/26 02:25:10;;;;;;;0.77;0.77;;;6.70;99.90;;;;;;6217656;23;20311;-71
2023/03/26 02:27:36;;;;;;;0.70;0.70;;;6.50;99.90;;;;;;6215793;23;20009;-71
2023/03/26 02:30:04;;;;;;;0.70;0.70;;;6.50;99.90;;;;;;6190547;23;20389;-72
2023/03/26 02:32:30;;;;;;;0.80;0.80;;;6.50;99.90;;;;;;6216589;23;20067;-72
2023/03/26 02:34:56;;;;;;;0.68;0.68;;;6.50;99.90;;;;;;6240898;23;20017;-72
2023/03/26 02:37:21;;;;;;;0.70;0.70;;;6.60;99.90;;;;;;6215475;23;20016;-71
2023/03/26 02:39:47;;;;;;;1.00;0.80;;;6.50;99.90;;;;;;6215635;23;20008;-71
2023/03/26 02:42:14;;;;;;;0.88;0.80;;;6.40;99.90;;;;;;6215380;23;20369;-72
2023/03/26 02:44:40;;;;;;;0.75;0.60;;;6.30;99.90;;;;;;6215460;23;20016;-72
2023/03/26 02:47:06;;;;;;;0.98;0.70;;;6.40;99.90;;;;;;6215898;23;20005;-72
2023/03/26 02:49:32;;;;;;;0.93;0.90;;;6.10;99.90;;;;;;6215382;23;20388;-71
2023/03/26 02:51:59;;;;;;;0.68;0.60;;;6.10;99.90;;;;;;6215405;23;20419;-72
2023/03/26 02:54:24;;;;;;;0.70;0.70;;;6.10;99.90;;;;;;6240664;23;20429;-71
2023/03/26 02:56:50;;;;;;;0.60;0.60;;;6.00;99.90;;;;;;6215383;23;20028;-71
2023/03/26 02:59:16;;;;;;;0.70;0.70;;;6.10;99.90;;;;;;6240642;23;20012;-72
2023/03/26 03:01:45;;;;;;;0.70;0.70;;;6.10;99.90;;;;;;6216658;23;20373;-71
2023/03/26 03:04:11;;;;;;;0.70;0.70;;;6.20;99.90;;;;;;6215719;23;20016;-72
2023/03/26 03:06:39;;;;;;;0.70;0.70;;;6.20;99.90;;;;;;6217322;23;20390;-71
2023/03/26 03:09:07;;;;;;;0.70;0.70;;;6.30;99.90;;;;;;6190205;23;20375;-71
2023/03/26 03:11:33;;;;;;;0.80;0.80;;;6.30;99.90;;;;;;6215267;23;20023;-71
2023/03/26 03:13:59;;;;;;;0.80;0.80;;;6.30;99.90;;;;;;6215272;23;20016;-72
2023/03/26 03:16:25;;;;;;;0.70;0.70;;;6.30;99.90;;;;;;6215164;23;20008;-71
2023/03/26 03:18:56;;;;;;;0.68;0.68;;;6.30;99.90;;;;;;6217089;23;20012;-72
2023/03/26 03:21:26;;;;;;;0.85;0.70;;;6.40;99.90;;;;;;6216597;23;20012;-73
2023/03/26 03:23:55;;;;;;;0.98;0.88;;;6.40;99.90;;;;;;6217122;23;20020;-73
2023/03/26 03:26:26;;;;;;;0.60;0.60;;;6.40;99.90;;;;;;6217026;23;20083;-72
2023/03/26 03:28:55;;;;;;;0.65;0.60;;;6.40;99.90;;;;;;6214865;23;20020;-72
2023/03/26 03:31:21;;;;;;;0.60;0.60;;;6.20;99.90;;;;;;6215442;23;20013;-72
2023/03/26 03:33:47;;;;;;;0.70;0.70;;;6.20;99.90;;;;;;6216956;23;20115;-73
2023/03/26 03:36:16;;;;;;;0.70;0.70;;;6.20;99.90;;;;;;6214841;23;20012;-72
2023/03/26 03:38:43;;;;;;;0.70;0.60;;;6.10;99.90;;;;;;6216830;23;20016;-72
2023/03/26 03:41:09;;;;;;;0.52;0.52;;;6.10;99.90;;;;;;6216335;23;20445;-72
2023/03/26 03:43:35;;;;;;;0.60;0.60;;;6.10;99.90;;;;;;6214978;23;20020;-72
2023/03/26 03:46:01;;;;;;;0.65;0.60;;;5.90;99.90;;;;;;6214923;23;20013;-72
2023/03/26 03:48:27;;;;;;;0.70;0.70;;;5.80;99.90;;;;;;6216866;23;20087;-72
2023/03/26 03:50:54;;;;;;;0.80;0.70;;;5.80;99.90;;;;;;6216724;23;20086;-72
2023/03/26 03:53:24;;;;;;;0.70;0.70;;;5.60;99.90;;;;;;6214826;23;20500;-72
2023/03/26 03:55:53;;;;;;;;;;;5.50;99.90;;;;;;6217281;23;20055;-72
2023/03/26 03:58:21;;;;;;;0.50;0.50;;;5.50;99.90;;;;;;6216776;23;19916;-72
2023/03/26 04:00:51;;;;;;;0.70;0.70;;;5.50;99.90;;;;;;6215121;23;20009;-72
2023/03/26 04:03:17;;;;;;;;;;;5.50;99.90;;;;;;6217170;23;20013;-72
2023/03/26 04:05:53;;;;;;;0.50;0.50;;;5.40;99.90;;;;;;6216646;23;19979;-72
2023/03/26 04:08:21;;;;;;;0.50;0.50;;;5.30;99.90;;;;;;6216347;23;20019;-72
2023/03/26 04:10:46;;;;;;;0.40;0.40;;;5.30;99.90;;;;;;6215150;23;20008;-73
2023/03/26 04:13:13;;;;;;;0.60;0.60;;;5.00;99.90;;;;;;6189638;23;20397;-72
2023/03/26 04:15:40;;;;;;;0.60;0.60;;;5.10;99.90;;;;;;6214668;23;20009;-72
2023/03/26 04:18:09;;;;;;;0.70;0.70;;;4.90;99.90;;;;;;6214775;23;20009;-72
2023/03/26 04:20:45;;;;;;;0.75;0.70;;;4.90;99.90;;;;;;6216671;23;20009;-72
2023/03/26 04:23:15;;;;;;;0.95;0.60;;;4.80;99.90;;;;;;6216544;23;20024;-72
2023/03/26 04:25:45;;;;;;;0.60;0.60;;;4.60;99.90;;;;;;6216577;23;20063;-72
2023/03/26 04:28:19;;;;;;;0.50;0.50;;;4.50;99.90;;;;;;6215608;23;20084;-73
2023/03/26 04:30:45;;;;;;;0.75;0.75;;;4.60;99.90;;;;;;6239897;23;20047;-72
2023/03/26 04:33:14;;;;;;;0.60;0.60;;;4.60;99.90;;;;;;6216434;23;20020;-72
2023/03/26 04:35:43;;;;;;;0.50;0.50;;;4.60;99.90;;;;;;6216053;23;20071;-72
2023/03/26 04:38:10;;;;;;;0.50;0.50;;;4.60;99.90;;;;;;6189398;23;20025;-72
2023/03/26 04:40:37;;;;;;;0.70;0.70;;;4.60;99.90;;;;;;6214468;23;20012;-72
2023/03/26 04:43:03;;;;;;;0.70;0.70;;;4.60;99.90;;;;;;6239533;23;20337;-72
2023/03/26 04:45:30;;;;;;;0.80;0.70;;;4.50;99.90;;;;;;6216253;23;20122;-72
2023/03/26 04:47:59;;;;;;;0.50;0.50;;;4.70;99.90;;;;;;6216220;23;20028;-72
2023/03/26 04:50:25;;;;;;;0.60;0.60;;;4.70;99.90;;;;;;6214364;23;20023;-72
2023/03/26 04:52:55;;;;;;;0.52;0.52;;;4.60;99.90;;;;;;6214301;23;20433;-72
2023/03/26 04:55:32;;;;;;;0.70;0.70;;;4.60;99.90;;;;;;6215902;23;20012;-72
2023/03/26 04:58:04;;;;;;;0.70;0.70;;;4.60;99.90;;;;;;6215902;23;20024;-72
2023/03/26 05:00:31;;;;;;;0.60;0.55;;;4.90;99.90;;;;;;6214300;23;20012;-72
2023/03/26 05:03:00;;;;;;;0.70;0.70;;;4.80;99.90;;;;;;6216061;23;20019;-72
2023/03/26 05:05:27;;;;;;;0.93;0.70;;;4.90;99.90;;;;;;6215643;23;20473;-72
2023/03/26 05:07:53;;;;;;;0.60;0.60;;;5.10;99.90;;;;;;6215848;23;20013;-72
2023/03/26 05:10:20;;;;;;;0.65;0.65;;;5.10;99.90;;;;;;6216176;23;20055;-72
2023/03/26 05:12:46;;;;;;;0.60;0.60;;;5.20;99.90;;;;;;6214246;23;20017;-73
2023/03/26 05:15:13;;;;;;;0.57;0.57;;;5.40;99.90;;;;;;6216130;23;20051;-72
2023/03/26 05:17:40;;;;;;;0.60;0.60;;;5.50;99.90;;;;;;6216137;23;20337;-72
2023/03/26 05:20:19;;;;;;;0.63;0.63;;;5.60;99.90;;;;;;6216000;23;20048;-72
2023/03/26 05:22:45;;;;;;;0.80;0.80;;;5.50;99.90;;;;;;6214590;23;20016;-72
2023/03/26 05:25:11;;;;;;;0.98;0.80;;;5.60;99.90;;;;;;6214148;23;20314;-72
2023/03/26 05:27:37;;;;;;;0.77;0.77;;;5.70;99.90;;;;;;6189044;23;20019;-72
2023/03/26 05:30:04;;;;;;;0.80;0.80;;;5.70;99.90;;;;;;6215713;23;20442;-72
2023/03/26 05:32:30;;;;;;;1.20;0.75;;;5.80;99.90;;;;;;6239408;23;20337;-72
2023/03/26 05:34:56;;;;;;;0.75;0.75;;;5.70;99.90;;;;;;6216020;23;20337;-72
2023/03/26 05:37:23;;;;;;;0.80;0.80;;;5.70;99.90;;;;;;6213817;23;20071;-72
2023/03/26 05:39:54;;;;;;;0.60;0.60;;;5.80;99.90;;;;;;6188956;23;20013;-73
2023/03/26 05:42:20;;;;;;;0.70;0.70;;;5.70;99.90;;;;;;6215999;23;20023;-72
2023/03/26 05:44:46;;;;;;;0.63;0.63;;;5.90;99.90;;;;;;6189126;23;20013;-73
2023/03/26 05:47:11;;;;;;;0.90;0.73;;;5.90;99.90;;;;;;6215646;23;20016;-72
2023/03/26 05:49:37;;;;;;;0.80;0.80;;;5.80;99.90;;;;;;6215980;23;20017;-72
2023/03/26 05:52:02;;;;;;;0.70;0.70;;;5.80;99.90;;;;;;6217439;23;20066;-72
2023/03/26 05:54:28;;;;;;;0.93;0.70;;;5.80;99.90;;;;;;6217805;23;20019;-73
2023/03/26 05:56:55;;;;;;;0.75;0.70;;;6.00;99.90;;;;;;6217812;23;20067;-72
2023/03/26 05:59:21;;;;;;;1.15;1.00;;;6.10;99.90;;;;;;6191010;23;20024;-72
2023/03/26 06:01:49;;;;;;;0.70;0.70;;;5.90;99.90;;;;;;6217739;23;20009;-72
2023/03/26 06:04:16;;;;;;;0.60;0.60;;;6.10;99.90;;;;;;6215843;23;20012;-72
2023/03/26 06:06:43;;;;;;;0.98;0.90;;;5.90;99.90;;;;;;6217710;23;20009;-72
2023/03/26 06:09:12;;;;;;;0.98;0.73;;;6.00;99.90;;;;;;6190684;23;20013;-72
2023/03/26 06:11:38;;;;;;;0.60;0.60;;;6.00;99.90;;;;;;6217357;23;20475;-72
2023/03/26 06:14:04;;;;;;;0.77;0.77;;;6.10;99.90;;;;;;6218046;23;20368;-72
2023/03/26 06:16:30;;;;;;;0.90;0.90;;;6.00;99.90;;;;;;6217725;23;20043;-72
2023/03/26 06:18:57;;;;;;;0.60;0.60;;;6.20;99.90;;;;;;6215788;23;20009;-72
2023/03/26 06:21:23;;;;;;;0.80;0.80;;;6.30;99.90;;;;;;6215739;23;20039;-72
2023/03/26 06:23:50;;;;;;;0.80;0.80;;;6.20;99.90;;;;;;6215691;23;20064;-73
2023/03/26 06:26:16;;;;;;;0.80;0.80;;;6.30;99.90;;;;;;6215778;23;20013;-72
2023/03/26 06:28:41;;;;;;;0.60;0.60;;;6.30;99.90;;;;;;6217613;23;20340;-72
2023/03/26 06:31:07;;;;;;;0.85;0.75;;;6.20;99.90;;;;;;6216151;23;20083;-72
2023/03/26 06:33:33;;;;;;;0.60;0.60;;;6.40;99.90;;;;;;6240872;23;20052;-72
2023/03/26 06:35:58;;;;;;;0.80;0.80;;;6.40;99.90;;;;;;6217139;23;20019;-72
2023/03/26 06:38:24;;;;;;;0.77;0.70;;;6.50;99.90;;;;;;6217096;23;20398;-72
2023/03/26 06:40:50;;;;;;;0.80;0.80;;;6.50;99.90;;;;;;6215370;23;20095;-72
2023/03/26 06:43:15;;;;;;;0.80;0.80;;;6.50;99.90;;;;;;6217052;23;20456;-72
2023/03/26 06:45:41;;;;;;;0.60;0.60;;;6.50;99.90;;;;;;6217307;23;20337;-72
2023/03/26 06:48:07;;;;;;;0.73;0.70;;;6.60;99.90;;;;;;6215499;23;20314;-72
2023/03/26 06:50:33;;;;;;;0.85;0.85;;;6.50;99.90;;;;;;6215426;23;20009;-72
2023/03/26 06:52:59;;;;;;;0.95;0.70;;;6.70;99.90;;;;;;6240757;23;20448;-72
2023/03/26 06:55:25;;;;;;;0.65;0.65;;;6.70;99.90;;;;;;6217285;23;20013;-73
2023/03/26 06:57:53;;;;;;;0.75;0.75;;;6.70;99.90;;;;;;6215423;23;20094;-72
2023/03/26 07:00:19;;;;;;;0.80;0.80;;;6.80;99.90;;;;;;6215314;23;20021;-72
2023/03/26 07:02:45;;;;;;;1.05;0.95;;;6.90;99.90;;;;;;6216317;23;20019;-72
2023/03/26 07:05:12;;;;;;;0.90;0.90;;;6.90;99.90;;;;;;6215371;23;20017;-72
2023/03/26 07:07:38;;;;;;;1.10;0.90;;;7.10;99.90;;;;;;6215250;23;20433;-72
2023/03/26 07:10:04;;;;;;;0.80;0.80;;;7.20;99.90;;;;;;6217169;23;20060;-72
2023/03/26 07:12:30;;;;;;;0.70;0.70;;;7.20;99.90;;;;;;6215327;23;20017;-73
2023/03/26 07:14:56;;;;;;;1.13;0.80;;;7.10;99.90;;;;;;6240588;23;20052;-72
2023/03/26 07:17:21;;;;;;;0.70;0.70;;;7.10;99.90;;;;;;6240521;23;20092;-72
2023/03/26 07:19:47;;;;;;;0.98;0.88;;;7.20;99.90;;;;;;6240460;23;20043;-73
2023/03/26 07:22:22;;;;;;;0.80;0.80;;;7.30;99.90;;;;;;6217051;23;20063;-73
2023/03/26 07:24:48;;;;;;;1.27;0.90;;;7.20;99.90;;;;;;6215169;23;20027;-73
2023/03/26 07:27:25;;;;;;;1.02;1.00;;;7.20;99.90;;;;;;6190161;23;20115;-73
2023/03/26 07:30:13;;;;;;;0.70;0.70;;;7.40;99.90;;;;;;6215049;23;20429;-73
2023/03/26 07:32:59;;;;;;;0.80;0.80;;;7.30;99.90;;;;;;6215058;23;20323;-73
2023/03/26 07:35:42;;;;;;;1.08;0.98;;;7.40;99.90;;;;;;6194125;23;20016;-72
2023/03/26 07:38:20;;;;;;;1.30;0.90;;;7.30;99.90;;;;;;6215041;23;20511;-73
2023/03/26 07:41:21;;;;;;;0.70;0.70;;;7.40;99.90;;;;;;6216853;23;20013;-72
2023/03/26 07:44:09;;;;;;;0.90;0.90;;;7.40;99.90;;;;;;6124815;23;20022;-73
2023/03/26 07:46:35;;;;;;;0.90;0.80;;;7.40;99.90;;;;;;6124999;23;20447;-72
2023/03/26 07:49:03;;;;;;;0.98;0.90;;;7.50;99.90;;;;;;6124723;23;20020;-72
2023/03/26 07:51:30;;;;;;;1.10;1.00;;;7.60;99.90;;;;;;6124658;23;20423;-72
2023/03/26 07:53:58;;;;;;;1.10;1.00;;;7.60;99.90;;;;;;6124631;23;20013;-72
2023/03/26 07:56:51;;;;;;;0.75;0.75;;;7.50;99.90;;;;;;6124573;23;20088;-72
2023/03/26 07:59:25;;;;;;;0.80;0.80;;;7.60;99.90;;;;;;6100098;23;20116;-73
2023/03/26 08:02:19;;;;;;;0.70;0.70;;;7.70;99.90;;;;;;6076122;23;20346;-73
2023/03/26 08:04:53;;;;;;;0.70;0.70;;;7.80;99.90;;;;;;6100177;23;20041;-72
2023/03/26 08:07:44;;;;;;;0.70;0.70;;;7.90;99.90;;;;;;6124561;23;20018;-73
2023/03/26 08:10:32;;;;;;;0.63;0.63;;;7.90;99.90;;;;;;6124316;23;20057;-72
2023/03/26 08:13:19;;;;;;;0.80;0.80;;;7.90;99.90;;;;;;6099942;23;20026;-73
2023/03/26 08:16:12;;;;;;;0.70;0.70;;;8.00;99.90;;;;;;6124554;23;20013;-73
2023/03/26 08:19:02;;;;;;;0.90;0.90;;;8.00;99.90;;;;;;6202998;23;20021;-73
2023/03/26 08:21:36;;;;;;;0.73;0.70;;;8.10;99.90;;;;;;6215949;23;20024;-74
2023/03/26 08:24:25;;;;;;;0.60;0.60;;;8.20;99.90;;;;;;6239916;23;20012;-74
2023/03/26 08:27:23;;;;;;;0.80;0.80;;;8.20;99.90;;;;;;6214508;23;20051;-72
2023/03/26 08:30:04;;;;;;;1.05;0.95;;;8.30;99.90;;;;;;6214541;23;20019;-71
2023/03/26 08:32:30;;;;;;;0.88;0.75;;;8.30;99.90;;;;;;6214554;23;20087;-74
2023/03/26 08:34:56;;;;;;;1.00;0.85;;;8.30;99.90;;;;;;6214934;23;20016;-69
2023/03/26 08:37:22;;;;;;;1.38;0.90;;;8.30;99.90;;;;;;6216115;23;20341;-70
2023/03/26 08:39:47;;;;;;;0.88;0.82;;;8.30;99.90;;;;;;6214342;23;20051;-70
2023/03/26 08:42:52;;;;;;;0.88;0.82;;;8.40;99.90;;;;;;6216157;23;20019;-70
2023/03/26 08:45:30;;;;;;;0.90;0.90;;;8.40;99.90;;;;;;6129860;23;20067;-69
2023/03/26 08:48:27;;;;;;;0.80;0.80;;;8.50;99.90;;;;;;6216101;23;20066;-70
2023/03/26 08:51:09;;;;;;;0.80;0.80;;;8.50;99.90;;;;;;6216666;23;20369;-70
2023/03/26 08:54:11;;;;;;;1.00;0.90;;;8.50;99.90;;;;;;6215937;23;20431;-69
2023/03/26 08:57:14;;;;;;;0.85;0.85;;;8.60;99.90;;;;;;6214332;23;20464;-70
2023/03/26 09:00:25;;;;;;;1.08;0.90;;;8.60;99.90;;;;;;6214415;23;20361;-70
2023/03/26 09:03:16;;;;;;;0.65;0.65;;;8.70;99.90;;;;;;6216823;23;20023;-70
2023/03/26 09:05:53;;;;;;;0.70;0.70;;;8.80;99.90;;;;;;6216166;23;20012;-70
2023/03/26 09:08:31;;;;;;;0.70;0.70;;;8.70;99.90;;;;;;6216176;23;20017;-68
2023/03/26 09:11:24;;;;;;;1.60;0.70;;;8.80;99.90;;;;;;6239574;23;20016;-69
2023/03/26 09:14:07;;;;;;;0.65;0.65;;;8.80;99.90;;;;;;6215656;23;20021;-68
2023/03/26 09:16:48;;;;;;;0.77;0.77;;;8.90;99.90;;;;;;6214264;23;20024;-71
2023/03/26 09:19:58;;;;;;;0.70;0.70;;;9.00;99.90;;;;;;6189112;23;20063;-71
2023/03/26 09:22:38;;;;;;;;;;;9.00;99.90;;;;;;6184464;23;20017;-72
2023/03/26 09:25:29;;;;;;;0.70;0.70;;;9.10;99.90;;;;;;6188848;23;20260;-70
2023/03/26 09:28:19;;;;;;;0.82;0.82;;;9.10;99.90;;;;;;6218145;23;20014;-72
2023/03/26 09:31:11;;;;;;;0.55;0.55;;;9.20;99.90;;;;;;6216649;23;20008;-73
2023/03/26 09:33:42;;;;;;;0.70;0.70;;;9.20;99.90;;;;;;6216361;23;20066;-73
2023/03/26 09:36:18;;;;;;;0.70;0.70;;;9.20;99.90;;;;;;6217607;23;20434;-72
2023/03/26 09:38:52;;;;;;;0.60;0.60;;;9.20;99.90;;;;;;6218458;23;20063;-73
2023/03/26 09:41:50;;;;;;;0.90;0.90;;;9.30;99.90;;;;;;6216073;23;20013;-73
2023/03/26 09:44:25;;;;;;;0.60;0.60;;;9.30;99.90;;;;;;6216265;23;20047;-72
2023/03/26 09:47:26;;;;;;;0.60;0.60;;;9.40;99.90;;;;;;6217603;23;20092;-72
2023/03/26 09:50:21;;;;;;;0.65;0.65;;;9.40;99.90;;;;;;6216499;23;20043;-73
2023/03/26 09:53:07;;;;;;;0.75;0.75;;;9.40;99.90;;;;;;6210291;23;20044;-72
2023/03/26 09:55:51;;;;;;;0.65;0.65;;;9.40;99.90;;;;;;6241436;23;20441;-70
2023/03/26 09:58:17;;;;;;;0.80;0.80;;;9.40;99.90;;;;;;6216133;23;20016;-72
2023/03/26 10:00:48;;;;;;;0.77;0.77;;;9.50;99.90;;;;;;6241258;23;20020;-70
2023/03/26 10:03:20;;;;;;;0.80;0.80;;;9.40;99.90;;;;;;6217771;23;20373;-72
2023/03/26 10:06:20;;;;;;;0.77;0.77;;;9.50;99.90;;;;;;6217939;23;20015;-72
2023/03/26 10:09:03;;;;;;;0.68;0.68;;;9.50;99.90;;;;;;6217827;23;20059;-70
2023/03/26 10:11:59;;;;;;;0.75;0.75;;;9.60;99.90;;;;;;6217829;23;20008;-70
2023/03/26 10:14:42;;;;;;;0.65;0.65;;;9.60;99.90;;;;;;6077187;23;20021;-71
2023/03/26 10:17:48;;;;;;;0.70;0.70;;;9.60;99.90;;;;;;6125838;23;20014;-71
2023/03/26 10:20:36;;;;;;;0.70;0.70;;;9.70;99.90;;;;;;6072973;23;20451;-71
2023/03/26 10:23:20;;;;;;;0.65;0.65;;;9.70;99.90;;;;;;6125367;23;20014;-71
2023/03/26 10:26:13;;;;;;;0.63;0.63;;;9.70;99.90;;;;;;6077118;23;20048;-71
2023/03/26 10:28:58;;;;;;;0.68;0.68;;;9.70;99.90;;;;;;6125423;23;20049;-71
2023/03/26 10:31:24;;;;;;;0.60;0.60;;;9.70;99.90;;;;;;6077772;23;20022;-71
2023/03/26 10:34:26;;;;;;;0.85;0.85;;;9.70;99.90;;;;;;6100940;23;20384;-71
2023/03/26 10:37:03;;;;;;;0.70;0.70;;;9.80;99.90;;;;;;6124738;23;20032;-71
2023/03/26 10:39:54;;;;;;;0.60;0.60;;;9.80;99.90;;;;;;6125517;23;20018;-71
2023/03/26 10:42:39;;;;;;;0.90;0.80;;;9.90;99.90;;;;;;6124574;23;20018;-71
2023/03/26 10:45:23;;;;;;;0.80;0.80;;;9.90;99.90;;;;;;6101042;23;20068;-72
2023/03/26 10:48:01;;;;;;;0.82;0.82;;;10.00;99.90;;;;;;6101815;23;20344;-72
2023/03/26 10:50:52;;;;;;;0.80;0.70;;;10.10;99.90;;;;;;6133466;23;20039;-71
2023/03/26 10:53:30;;;;;;;0.70;0.70;;;10.00;99.90;;;;;;6215597;23;20047;-72
2023/03/26 10:56:06;;;;;;;0.60;0.60;;;10.10;99.90;;;;;;6190374;23;20048;-72
2023/03/26 10:58:34;;;;;;;0.80;0.80;;;10.20;99.90;;;;;;6215369;23;20087;-73
2023/03/26 11:01:03;;;;;;;0.73;0.73;;;10.30;99.90;;;;;;6217161;23;20023;-72
2023/03/26 11:03:53;;;;;;;0.68;0.68;;;10.30;99.90;;;;;;6217424;23;20019;-73
2023/03/26 11:06:30;;;;;;;0.70;0.70;;;10.40;99.90;;;;;;6217008;23;20456;-73
2023/03/26 11:09:14;;;;;;;0.77;0.77;;;10.40;99.90;;;;;;6240651;23;20017;-72
2023/03/26 11:12:06;;;;;;;0.57;0.57;;;10.50;99.90;;;;;;6215694;23;20016;-71
2023/03/26 11:14:53;;;;;;;0.70;0.70;;;10.70;99.90;;;;;;6215649;23;20040;-70
2023/03/26 11:17:41;;;;;;;0.73;0.73;;;10.70;99.90;;;;;;6216840;23;20020;-72
2023/03/26 11:20:39;;;;;;;0.80;0.80;;;10.80;99.90;;;;;;6240515;23;20044;-73
2023/03/26 11:23:21;;;;;;;0.63;0.63;;;10.90;99.90;;;;;;6215087;23;20091;-71
2023/03/26 11:26:10;;;;;;;0.40;0.40;;;11.00;99.90;;;;;;6215641;23;20013;-72
2023/03/26 11:28:44;;;;;;;0.50;0.50;;;11.00;99.90;;;;;;6216733;23;20024;-71
2023/03/26 11:31:17;;;;;;;0.70;0.70;;;11.10;99.90;;;;;;6217288;23;20383;-72
2023/03/26 11:33:50;;;;;;;0.73;0.73;;;11.10;99.90;;;;;;6217147;23;20016;-72
2023/03/26 11:36:22;;;;;;;0.52;0.52;;;11.20;99.90;;;;;;6215208;23;20423;-72
2023/03/26 11:38:54;;;;;;;0.70;0.70;;;11.10;99.90;;;;;;6216942;23;20110;-72
2023/03/26 11:41:24;;;;;;;0.50;0.50;;;10.90;99.90;;;;;;6214878;23;20429;-72
2023/03/26 11:44:15;;;;;;;0.52;0.52;;;10.90;99.90;;;;;;6189890;23;20019;-73
2023/03/26 11:46:44;;;;;;;0.80;0.80;;;10.80;99.90;;;;;;6199135;23;20340;-72
2023/03/26 11:49:13;;;;;;;0.60;0.60;;;10.80;99.90;;;;;;6214755;23;20020;-72
2023/03/26 11:51:40;;;;;;;0.65;0.65;;;10.80;99.90;;;;;;6215277;23;20024;-72
2023/03/26 11:54:09;;;;;;;0.70;0.70;;;10.80;99.90;;;;;;6189852;23;20013;-73
2023/03/26 11:57:00;;;;;;;0.60;0.60;;;10.80;99.90;;;;;;6216806;23;20075;-73
2023/03/26 11:59:28;;;;;;;0.60;0.60;;;10.80;99.90;;;;;;6216772;23;20013;-73
2023/03/26 12:02:15;;;;;;;0.70;0.60;;;10.70;99.90;;;;;;6214772;23;20024;-73
2023/03/26 12:04:42;;;;;;;0.55;0.55;;;10.70;99.90;;;;;;6214883;23;20008;-72
2023/03/26 12:07:15;;;;;;;0.52;0.52;;;10.70;99.90;;;;;;6214871;23;20396;-72
2023/03/26 12:09:56;;;;;;;0.70;0.70;;;10.70;99.90;;;;;;6215842;23;20016;-72
2023/03/26 12:12:30;;;;;;;0.70;0.70;;;10.60;99.90;;;;;;6216702;23;20070;-72
2023/03/26 12:14:57;;;;;;;0.68;0.68;;;10.70;99.90;;;;;;6214837;23;20078;-73
2023/03/26 12:17:32;;;;;;;0.70;0.70;;;10.70;99.90;;;;;;6214703;23;20432;-72
2023/03/26 12:19:59;;;;;;;0.80;0.60;;;10.70;99.90;;;;;;6216590;23;20019;-72
2023/03/26 12:22:37;;;;;;;0.70;0.70;;;10.80;99.90;;;;;;6216096;23;20017;-72
2023/03/26 12:25:16;;;;;;;0.70;0.70;;;10.80;99.90;;;;;;6214996;23;20036;-73
2023/03/26 12:27:46;;;;;;;0.70;0.70;;;10.80;99.90;;;;;;6214877;23;20023;-72
2023/03/26 12:30:22;;;;;;;0.70;0.70;;;10.80;99.90;;;;;;6214647;23;20128;-72
2023/03/26 12:32:50;;;;;;;0.60;0.60;;;10.80;99.90;;;;;;6216895;23;20012;-72
2023/03/26 12:35:17;;;;;;;0.60;0.60;;;10.90;99.90;;;;;;6216422;23;20087;-72
2023/03/26 12:37:44;;;;;;;0.60;0.60;;;10.80;99.90;;;;;;6214349;23;20013;-72
2023/03/26 12:40:33;;;;;;;0.60;0.60;;;10.90;99.90;;;;;;6189460;23;20008;-73
2023/03/26 12:43:02;;;;;;;0.65;0.65;;;10.90;99.90;;;;;;6216639;23;20020;-72
2023/03/26 12:45:40;;;;;;;0.60;0.60;;;10.90;99.90;;;;;;6215975;23;20437;-73
2023/03/26 12:48:08;;;;;;;0.73;0.73;;;10.80;99.90;;;;;;6214455;23;20019;-73
2023/03/26 12:50:59;;;;;;;0.60;0.60;;;10.80;99.90;;;;;;6214446;23;20013;-72
2023/03/26 12:53:39;;;;;;;0.70;0.70;;;10.80;99.90;;;;;;6216305;23;20009;-73
2023/03/26 12:56:34;;;;;;;0.70;0.70;;;10.80;99.90;;;;;;6239670;23;20012;-73
2023/03/26 12:59:29;;;;;;;0.73;0.70;;;10.80;99.90;;;;;;6214416;23;20013;-73
2023/03/26 13:02:04;;;;;;;0.70;0.70;;;10.80;99.90;;;;;;6210665;23;20040;-72
2023/03/26 13:04:49;;;;;;;0.47;0.47;;;10.80;99.90;;;;;;6239539;23;20012;-72
2023/03/26 13:07:21;;;;;;;0.50;0.50;;;10.90;99.40;;;;;;6214273;23;20091;-72
2023/03/26 13:09:55;;;;;;;0.60;0.60;;;10.90;98.70;;;;;;6189204;23;20409;-73
2023/03/26 13:12:37;;;;;;;0.80;0.80;;;10.90;99.40;;;;;;6189486;23;20023;-72
2023/03/26 13:15:11;;;;;;;0.60;0.60;;;11.00;98.50;;;;;;6216162;23;20016;-72
2023/03/26 13:17:55;;;;;;;0.60;0.60;;;11.00;99.30;;;;;;6214231;23;20017;-72
2023/03/26 13:20:28;;;;;;;0.60;0.60;;;11.00;99.40;;;;;;6239411;23;20135;-72
2023/03/26 13:23:03;;;;;;;0.60;0.60;;;11.00;99.00;;;;;;6239739;23;20067;-73
2023/03/26 13:25:42;;;;;;;0.60;0.60;;;11.10;98.40;;;;;;6216209;23;20021;-73
2023/03/26 13:28:46;;;;;;;0.70;0.70;;;11.00;99.40;;;;;;6214354;23;20417;-73
2023/03/26 13:31:24;;;;;;;0.68;0.68;;;11.00;99.90;;;;;;6214273;23;20021;-73
2023/03/26 13:34:16;;;;;;;0.80;0.80;;;11.00;99.90;;;;;;6189484;23;20016;-73